sensor_id;sensor_type;location;lat;lon;timestamp;pressure;altitude;pressure_sealevel;temperature;humidity
69198;BME280;56311;50.298;8.514;2023-05-19T00:00:01;98520.0;;;6.4;100.0
69198;BME280;56311;50.298;8.514;2023-05-19T00:02:00;98520.0;;;6.3;100.0
69198;BME280;56311;50.298;8.514;2023-05-19T00:04:00;98520.0;;;6.4;100.0
69198;BME280;56311;50.298;8.514;2023-05-19T00:06:01;98520.0;;;6.3;100.0
69198;BME280;56311;50.298;8.514;2023-05-19T00:08:01;98520.0;;;6.3;100.0
69198;BME280;56311;50.298;8.514;2023-05-19T00:10:00;98520.0;;;6.2;100.0
69198;BME280;56311;50.298;8.514;2023-05-19T00:12:00;98520.0;;;6.2;100.0
69198;BME280;56311;50.298;8.514;2023-05-19T00:14:01;98520.0;;;6.1;100.0
69198;BME280;56311;50.298;8.514;2023-05-19T00:16:00;98520.0;;;6.0;100.0
69198;BME280;56311;50.298;8.514;2023-05-19T00:18:00;98520.0;;;5.9;100.0
69198;BME280;56311;50.298;8.514;2023-05-19T00:20:00;98520.0;;;5.9;100.0
69198;BME280;56311;50.298;8.514;2023-05-19T00:22:00;98520.0;;;5.8;100.0
69198;BME280;56311;50.298;8.514;2023-05-19T00:24:00;98520.0;;;5.8;100.0
69198;BME280;56311;50.298;8.514;2023-05-19T00:26:00;98510.0;;;5.8;100.0
69198;BME280;56311;50.298;8.514;2023-05-19T00:28:00;98510.0;;;5.8;100.0
69198;BME280;56311;50.298;8.514;2023-05-19T00:30:00;98510.0;;;5.8;100.0
69198;BME280;56311;50.298;8.514;2023-05-19T00:32:00;98510.0;;;5.8;100.0
69198;BME280;56311;50.298;8.514;2023-05-19T00:34:00;98510.0;;;5.8;100.0
69198;BME280;56311;50.298;8.514;2023-05-19T00:36:00;98510.0;;;5.8;100.0
69198;BME280;56311;50.298;8.514;2023-05-19T00:38:00;98500.0;;;5.7;100.0
69198;BME280;56311;50.298;8.514;2023-05-19T00:40:00;98510.0;;;5.7;100.0
69198;BME280;56311;50.298;8.514;2023-05-19T00:42:00;98500.0;;;5.7;100.0
69198;BME280;56311;50.298;8.514;2023-05-19T00:44:00;98500.0;;;5.7;100.0
69198;BME280;56311;50.298;8.514;2023-05-19T00:46:00;98500.0;;;5.6;100.0
69198;BME280;56311;50.298;8.514;2023-05-19T00:48:00;98500.0;;;5.6;100.0
69198;BME280;56311;50.298;8.514;2023-05-19T00:50:00;98500.0;;;5.6;100.0
69198;BME280;56311;50.298;8.514;2023-05-19T00:52:01;98500.0;;;5.6;100.0
69198;BME280;56311;50.298;8.514;2023-05-19T00:54:00;98490.0;;;5.6;100.0
69198;BME280;56311;50.298;8.514;2023-05-19T00:56:02;98490.0;;;5.5;100.0
69198;BME280;56311;50.298;8.514;2023-05-19T00:58:00;98490.0;;;5.6;100.0
69198;BME280;56311;50.298;8.514;2023-05-19T01:00:00;98490.0;;;5.6;100.0
69198;BME280;56311;50.298;8.514;2023-05-19T01:02:00;98490.0;;;5.6;100.0
69198;BME280;56311;50.298;8.514;2023-05-19T01:04:00;98490.0;;;5.5;100.0
69198;BME280;56311;50.298;8.514;2023-05-19T01:06:00;98490.0;;;5.6;100.0
69198;BME280;56311;50.298;8.514;2023-05-19T01:08:01;98490.0;;;5.5;100.0
69198;BME280;56311;50.298;8.514;2023-05-19T01:10:00;98490.0;;;5.5;100.0
69198;BME280;56311;50.298;8.514;2023-05-19T01:12:00;98480.0;;;5.5;100.0
69198;BME280;56311;50.298;8.514;2023-05-19T01:14:00;98490.0;;;5.5;100.0
69198;BME280;56311;50.298;8.514;2023-05-19T01:16:03;98490.0;;;5.5;100.0
69198;BME280;56311;50.298;8.514;2023-05-19T01:18:04;98490.0;;;5.5;100.0
69198;BME280;56311;50.298;8.514;2023-05-19T01:20:05;98490.0;;;5.5;100.0
69198;BME280;56311;50.298;8.514;2023-05-19T01:22:10;98480.0;;;5.5;100.0
69198;BME280;56311;50.298;8.514;2023-05-19T01:24:10;98480.0;;;5.5;100.0
69198;BME280;56311;50.298;8.514;2023-05-19T01:28:15;98480.0;;;5.5;100.0
69198;BME280;56311;50.298;8.514;2023-05-19T01:30:16;98480.0;;;5.3;100.0
69198;BME280;56311;50.298;8.514;2023-05-19T01:32:01;98490.0;;;5.3;100.0
69198;BME280;56311;50.298;8.514;2023-05-19T01:34:01;98490.0;;;5.4;100.0
69198;BME280;56311;50.298;8.514;2023-05-19T01:36:02;98490.0;;;5.4;100.0
69198;BME280;56311;50.298;8.514;2023-05-19T01:38:00;98490.0;;;5.4;100.0
69198;BME280;56311;50.298;8.514;2023-05-19T01:40:01;98480.0;;;5.4;100.0
69198;BME280;56311;50.298;8.514;2023-05-19T01:42:00;98490.0;;;5.4;100.0
69198;BME280;56311;50.298;8.514;2023-05-19T01:44:00;98490.0;;;5.3;100.0
69198;BME280;56311;50.298;8.514;2023-05-19T01:46:01;98490.0;;;5.3;100.0
69198;BME280;56311;50.298;8.514;2023-05-19T01:48:02;98490.0;;;5.3;100.0
69198;BME280;56311;50.298;8.514;2023-05-19T01:50:00;98480.0;;;5.3;100.0
69198;BME280;56311;50.298;8.514;2023-05-19T01:52:00;98490.0;;;5.2;100.0
69198;BME280;56311;50.298;8.514;2023-05-19T01:54:00;98490.0;;;5.2;100.0
69198;BME280;56311;50.298;8.514;2023-05-19T01:56:00;98490.0;;;5.2;100.0
69198;BME280;56311;50.298;8.514;2023-05-19T01:58:06;98490.0;;;5.1;100.0
69198;BME280;56311;50.298;8.514;2023-05-19T02:00:08;98490.0;;;5.1;100.0
69198;BME280;56311;50.298;8.514;2023-05-19T02:02:03;98490.0;;;5.2;100.0
69198;BME280;56311;50.298;8.514;2023-05-19T02:04:12;98490.0;;;5.1;100.0
69198;BME280;56311;50.298;8.514;2023-05-19T02:06:13;98490.0;;;5.1;100.0
69198;BME280;56311;50.298;8.514;2023-05-19T02:08:05;98490.0;;;5.2;100.0
69198;BME280;56311;50.298;8.514;2023-05-19T02:10:04;98490.0;;;5.2;100.0
69198;BME280;56311;50.298;8.514;2023-05-19T02:12:08;98490.0;;;5.2;100.0
69198;BME280;56311;50.298;8.514;2023-05-19T02:14:02;98490.0;;;5.2;100.0
69198;BME280;56311;50.298;8.514;2023-05-19T02:16:04;98490.0;;;5.2;100.0
69198;BME280;56311;50.298;8.514;2023-05-19T02:18:01;98490.0;;;5.1;100.0
69198;BME280;56311;50.298;8.514;2023-05-19T02:20:00;98490.0;;;5.1;100.0
69198;BME280;56311;50.298;8.514;2023-05-19T02:22:00;98490.0;;;5.1;100.0
69198;BME280;56311;50.298;8.514;2023-05-19T02:24:00;98490.0;;;5.1;100.0
69198;BME280;56311;50.298;8.514;2023-05-19T02:26:00;98490.0;;;5.1;100.0
69198;BME280;56311;50.298;8.514;2023-05-19T02:28:00;98490.0;;;5.1;100.0
69198;BME280;56311;50.298;8.514;2023-05-19T02:30:00;98480.0;;;5.0;100.0
69198;BME280;56311;50.298;8.514;2023-05-19T02:32:00;98480.0;;;5.0;100.0
69198;BME280;56311;50.298;8.514;2023-05-19T02:34:00;98480.0;;;4.9;100.0
69198;BME280;56311;50.298;8.514;2023-05-19T02:36:00;98490.0;;;5.0;100.0
69198;BME280;56311;50.298;8.514;2023-05-19T02:38:00;98490.0;;;5.0;100.0
69198;BME280;56311;50.298;8.514;2023-05-19T02:40:00;98480.0;;;5.1;100.0
69198;BME280;56311;50.298;8.514;2023-05-19T02:42:00;98480.0;;;5.1;100.0
69198;BME280;56311;50.298;8.514;2023-05-19T02:44:00;98480.0;;;5.1;100.0
69198;BME280;56311;50.298;8.514;2023-05-19T02:46:00;98480.0;;;5.1;100.0
69198;BME280;56311;50.298;8.514;2023-05-19T02:48:00;98470.0;;;5.0;100.0
69198;BME280;56311;50.298;8.514;2023-05-19T02:50:00;98470.0;;;5.0;100.0
69198;BME280;56311;50.298;8.514;2023-05-19T02:52:00;98470.0;;;5.0;100.0
69198;BME280;56311;50.298;8.514;2023-05-19T02:54:00;98470.0;;;4.9;100.0
69198;BME280;56311;50.298;8.514;2023-05-19T02:56:00;98470.0;;;4.9;100.0
69198;BME280;56311;50.298;8.514;2023-05-19T02:58:00;98460.0;;;4.9;100.0
69198;BME280;56311;50.298;8.514;2023-05-19T03:00:00;98460.0;;;4.8;100.0
69198;BME280;56311;50.298;8.514;2023-05-19T03:02:01;98470.0;;;4.9;100.0
69198;BME280;56311;50.298;8.514;2023-05-19T03:04:00;98460.0;;;4.9;100.0
69198;BME280;56311;50.298;8.514;2023-05-19T03:06:00;98460.0;;;4.8;100.0
69198;BME280;56311;50.298;8.514;2023-05-19T03:08:00;98470.0;;;4.8;100.0
69198;BME280;56311;50.298;8.514;2023-05-19T03:10:00;98470.0;;;4.8;100.0
69198;BME280;56311;50.298;8.514;2023-05-19T03:12:00;98460.0;;;4.7;100.0
69198;BME280;56311;50.298;8.514;2023-05-19T03:14:00;98460.0;;;4.7;100.0
69198;BME280;56311;50.298;8.514;2023-05-19T03:16:00;98460.0;;;4.7;100.0
69198;BME280;56311;50.298;8.514;2023-05-19T03:18:00;98460.0;;;4.7;100.0
69198;BME280;56311;50.298;8.514;2023-05-19T03:20:00;98470.0;;;4.7;100.0
69198;BME280;56311;50.298;8.514;2023-05-19T03:22:00;98460.0;;;4.7;100.0
69198;BME280;56311;50.298;8.514;2023-05-19T03:24:00;98470.0;;;4.6;100.0
69198;BME280;56311;50.298;8.514;2023-05-19T03:26:00;98470.0;;;4.5;100.0
69198;BME280;56311;50.298;8.514;2023-05-19T03:28:00;98470.0;;;4.5;100.0
69198;BME280;56311;50.298;8.514;2023-05-19T03:30:00;98470.0;;;4.5;100.0
69198;BME280;56311;50.298;8.514;2023-05-19T03:32:00;98470.0;;;4.5;100.0
69198;BME280;56311;50.298;8.514;2023-05-19T03:34:00;98470.0;;;4.5;100.0
69198;BME280;56311;50.298;8.514;2023-05-19T03:36:00;98470.0;;;4.4;100.0
69198;BME280;56311;50.298;8.514;2023-05-19T03:38:00;98470.0;;;4.4;100.0
69198;BME280;56311;50.298;8.514;2023-05-19T03:40:00;98470.0;;;4.4;100.0
69198;BME280;56311;50.298;8.514;2023-05-19T03:42:00;98470.0;;;4.4;100.0
69198;BME280;56311;50.298;8.514;2023-05-19T03:44:00;98470.0;;;4.4;100.0
69198;BME280;56311;50.298;8.514;2023-05-19T03:46:00;98480.0;;;4.3;100.0
69198;BME280;56311;50.298;8.514;2023-05-19T03:48:00;98470.0;;;4.3;100.0
69198;BME280;56311;50.298;8.514;2023-05-19T03:50:00;98470.0;;;4.4;100.0
69198;BME280;56311;50.298;8.514;2023-05-19T03:52:00;98470.0;;;4.4;100.0
69198;BME280;56311;50.298;8.514;2023-05-19T03:54:00;98470.0;;;4.4;100.0
69198;BME280;56311;50.298;8.514;2023-05-19T03:56:00;98470.0;;;4.4;100.0
69198;BME280;56311;50.298;8.514;2023-05-19T03:58:00;98470.0;;;4.4;100.0
69198;BME280;56311;50.298;8.514;2023-05-19T04:00:00;98470.0;;;4.4;100.0
69198;BME280;56311;50.298;8.514;2023-05-19T04:02:00;98470.0;;;4.4;100.0
69198;BME280;56311;50.298;8.514;2023-05-19T04:04:00;98460.0;;;4.4;100.0
69198;BME280;56311;50.298;8.514;2023-05-19T04:06:00;98470.0;;;4.4;100.0
69198;BME280;56311;50.298;8.514;2023-05-19T04:08:00;98470.0;;;4.4;100.0
69198;BME280;56311;50.298;8.514;2023-05-19T04:10:03;98470.0;;;4.5;100.0
69198;BME280;56311;50.298;8.514;2023-05-19T04:12:00;98480.0;;;4.5;100.0
69198;BME280;56311;50.298;8.514;2023-05-19T04:14:00;98470.0;;;4.5;100.0
69198;BME280;56311;50.298;8.514;2023-05-19T04:16:00;98470.0;;;4.5;100.0
69198;BME280;56311;50.298;8.514;2023-05-19T04:18:00;98470.0;;;4.5;100.0
69198;BME280;56311;50.298;8.514;2023-05-19T04:20:00;98470.0;;;4.6;100.0
69198;BME280;56311;50.298;8.514;2023-05-19T04:22:00;98470.0;;;4.6;100.0
69198;BME280;56311;50.298;8.514;2023-05-19T04:24:00;98470.0;;;4.7;100.0
69198;BME280;56311;50.298;8.514;2023-05-19T04:26:00;98470.0;;;4.7;100.0
69198;BME280;56311;50.298;8.514;2023-05-19T04:28:00;98470.0;;;4.7;100.0
69198;BME280;56311;50.298;8.514;2023-05-19T04:30:00;98470.0;;;4.8;100.0
69198;BME280;56311;50.298;8.514;2023-05-19T04:32:00;98470.0;;;4.9;100.0
69198;BME280;56311;50.298;8.514;2023-05-19T04:34:00;98470.0;;;4.9;100.0
69198;BME280;56311;50.298;8.514;2023-05-19T04:36:00;98470.0;;;5.0;100.0
69198;BME280;56311;50.298;8.514;2023-05-19T04:38:00;98480.0;;;5.1;100.0
69198;BME280;56311;50.298;8.514;2023-05-19T04:40:00;98480.0;;;5.2;100.0
69198;BME280;56311;50.298;8.514;2023-05-19T04:42:00;98480.0;;;5.3;100.0
69198;BME280;56311;50.298;8.514;2023-05-19T04:44:00;98480.0;;;5.3;100.0
69198;BME280;56311;50.298;8.514;2023-05-19T04:46:00;98480.0;;;5.4;100.0
69198;BME280;56311;50.298;8.514;2023-05-19T04:48:00;98480.0;;;5.5;100.0
69198;BME280;56311;50.298;8.514;2023-05-19T04:50:00;98490.0;;;5.5;100.0
69198;BME280;56311;50.298;8.514;2023-05-19T04:52:00;98490.0;;;5.6;100.0
69198;BME280;56311;50.298;8.514;2023-05-19T04:54:00;98490.0;;;5.7;100.0
69198;BME280;56311;50.298;8.514;2023-05-19T04:56:00;98490.0;;;5.8;100.0
69198;BME280;56311;50.298;8.514;2023-05-19T04:58:00;98490.0;;;5.9;100.0
69198;BME280;56311;50.298;8.514;2023-05-19T05:00:00;98490.0;;;6.0;100.0
69198;BME280;56311;50.298;8.514;2023-05-19T05:02:00;98500.0;;;6.1;100.0
69198;BME280;56311;50.298;8.514;2023-05-19T05:04:00;98500.0;;;6.2;100.0
69198;BME280;56311;50.298;8.514;2023-05-19T05:06:00;98500.0;;;6.2;100.0
69198;BME280;56311;50.298;8.514;2023-05-19T05:08:00;98490.0;;;6.3;100.0
69198;BME280;56311;50.298;8.514;2023-05-19T05:10:00;98490.0;;;6.4;100.0
69198;BME280;56311;50.298;8.514;2023-05-19T05:12:00;98490.0;;;6.5;100.0
69198;BME280;56311;50.298;8.514;2023-05-19T05:14:00;98490.0;;;6.6;100.0
69198;BME280;56311;50.298;8.514;2023-05-19T05:16:00;98490.0;;;6.7;100.0
69198;BME280;56311;50.298;8.514;2023-05-19T05:18:01;98490.0;;;6.8;100.0
69198;BME280;56311;50.298;8.514;2023-05-19T05:20:00;98490.0;;;6.9;100.0
69198;BME280;56311;50.298;8.514;2023-05-19T05:22:00;98480.0;;;7.0;100.0
69198;BME280;56311;50.298;8.514;2023-05-19T05:24:00;98480.0;;;7.2;100.0
69198;BME280;56311;50.298;8.514;2023-05-19T05:26:05;98480.0;;;7.3;100.0
69198;BME280;56311;50.298;8.514;2023-05-19T05:28:00;98480.0;;;7.4;100.0
69198;BME280;56311;50.298;8.514;2023-05-19T05:30:01;98480.0;;;7.5;100.0
69198;BME280;56311;50.298;8.514;2023-05-19T05:32:00;98480.0;;;7.5;100.0
69198;BME280;56311;50.298;8.514;2023-05-19T05:34:00;98480.0;;;7.6;100.0
69198;BME280;56311;50.298;8.514;2023-05-19T05:36:00;98480.0;;;7.7;100.0
69198;BME280;56311;50.298;8.514;2023-05-19T05:38:01;98480.0;;;7.7;98.6
69198;BME280;56311;50.298;8.514;2023-05-19T05:40:00;98480.0;;;7.8;96.2
69198;BME280;56311;50.298;8.514;2023-05-19T05:42:00;98480.0;;;7.9;97.5
69198;BME280;56311;50.298;8.514;2023-05-19T05:44:00;98480.0;;;7.9;95.4
69198;BME280;56311;50.298;8.514;2023-05-19T05:46:00;98480.0;;;8.0;94.3
69198;BME280;56311;50.298;8.514;2023-05-19T05:48:00;98480.0;;;8.1;94.5
69198;BME280;56311;50.298;8.514;2023-05-19T05:50:00;98480.0;;;8.1;94.7
69198;BME280;56311;50.298;8.514;2023-05-19T05:52:01;98480.0;;;8.1;93.8
69198;BME280;56311;50.298;8.514;2023-05-19T05:54:00;98480.0;;;8.2;93.6
69198;BME280;56311;50.298;8.514;2023-05-19T05:56:01;98480.0;;;8.3;93.4
69198;BME280;56311;50.298;8.514;2023-05-19T05:58:00;98480.0;;;8.4;93.1
69198;BME280;56311;50.298;8.514;2023-05-19T06:00:00;98480.0;;;8.5;93.1
69198;BME280;56311;50.298;8.514;2023-05-19T06:02:00;98490.0;;;8.6;92.2
69198;BME280;56311;50.298;8.514;2023-05-19T06:04:00;98490.0;;;8.6;91.6
69198;BME280;56311;50.298;8.514;2023-05-19T06:06:00;98490.0;;;8.7;92.5
69198;BME280;56311;50.298;8.514;2023-05-19T06:08:00;98490.0;;;8.8;91.7
69198;BME280;56311;50.298;8.514;2023-05-19T06:10:00;98480.0;;;8.9;91.3
69198;BME280;56311;50.298;8.514;2023-05-19T06:12:00;98490.0;;;8.9;88.5
69198;BME280;56311;50.298;8.514;2023-05-19T06:14:00;98480.0;;;8.8;86.8
69198;BME280;56311;50.298;8.514;2023-05-19T06:16:00;98480.0;;;8.9;87.4
69198;BME280;56311;50.298;8.514;2023-05-19T06:18:00;98480.0;;;9.0;87.3
69198;BME280;56311;50.298;8.514;2023-05-19T06:20:00;98490.0;;;9.0;89.9
69198;BME280;56311;50.298;8.514;2023-05-19T06:22:00;98490.0;;;9.0;87.8
69198;BME280;56311;50.298;8.514;2023-05-19T06:24:00;98480.0;;;9.1;87.5
69198;BME280;56311;50.298;8.514;2023-05-19T06:26:00;98480.0;;;9.2;86.9
69198;BME280;56311;50.298;8.514;2023-05-19T06:28:00;98490.0;;;9.4;85.9
69198;BME280;56311;50.298;8.514;2023-05-19T06:30:00;98480.0;;;9.5;85.9
69198;BME280;56311;50.298;8.514;2023-05-19T06:32:00;98480.0;;;9.6;84.4
69198;BME280;56311;50.298;8.514;2023-05-19T06:34:00;98480.0;;;9.7;84.0
69198;BME280;56311;50.298;8.514;2023-05-19T06:36:00;98480.0;;;9.7;82.5
69198;BME280;56311;50.298;8.514;2023-05-19T06:38:00;98480.0;;;9.9;84.7
69198;BME280;56311;50.298;8.514;2023-05-19T06:40:00;98480.0;;;9.9;83.2
69198;BME280;56311;50.298;8.514;2023-05-19T06:42:00;98480.0;;;9.8;82.0
69198;BME280;56311;50.298;8.514;2023-05-19T06:44:01;98480.0;;;10.1;81.8
69198;BME280;56311;50.298;8.514;2023-05-19T06:46:00;98480.0;;;10.2;80.8
69198;BME280;56311;50.298;8.514;2023-05-19T06:48:00;98480.0;;;10.2;79.7
69198;BME280;56311;50.298;8.514;2023-05-19T06:50:00;98480.0;;;10.2;79.9
69198;BME280;56311;50.298;8.514;2023-05-19T06:52:00;98480.0;;;10.3;80.4
69198;BME280;56311;50.298;8.514;2023-05-19T06:54:00;98470.0;;;10.3;81.7
69198;BME280;56311;50.298;8.514;2023-05-19T06:56:00;98480.0;;;10.4;82.3
69198;BME280;56311;50.298;8.514;2023-05-19T06:58:00;98470.0;;;10.6;80.7
69198;BME280;56311;50.298;8.514;2023-05-19T07:00:00;98470.0;;;10.4;79.2
69198;BME280;56311;50.298;8.514;2023-05-19T07:02:00;98470.0;;;10.4;80.1
69198;BME280;56311;50.298;8.514;2023-05-19T07:04:00;98470.0;;;10.6;80.2
69198;BME280;56311;50.298;8.514;2023-05-19T07:06:00;98470.0;;;10.8;80.9
69198;BME280;56311;50.298;8.514;2023-05-19T07:08:00;98470.0;;;10.8;79.8
69198;BME280;56311;50.298;8.514;2023-05-19T07:10:00;98470.0;;;10.8;80.0
69198;BME280;56311;50.298;8.514;2023-05-19T07:12:00;98470.0;;;10.9;79.3
69198;BME280;56311;50.298;8.514;2023-05-19T07:14:00;98470.0;;;10.9;77.5
69198;BME280;56311;50.298;8.514;2023-05-19T07:16:00;98470.0;;;11.0;78.2
69198;BME280;56311;50.298;8.514;2023-05-19T07:18:00;98470.0;;;11.1;78.2
69198;BME280;56311;50.298;8.514;2023-05-19T07:20:00;98460.0;;;11.3;76.7
69198;BME280;56311;50.298;8.514;2023-05-19T07:22:00;98470.0;;;11.1;77.2
69198;BME280;56311;50.298;8.514;2023-05-19T07:24:00;98460.0;;;11.3;77.7
69198;BME280;56311;50.298;8.514;2023-05-19T07:26:00;98460.0;;;11.2;76.5
69198;BME280;56311;50.298;8.514;2023-05-19T07:28:00;98460.0;;;11.2;78.6
69198;BME280;56311;50.298;8.514;2023-05-19T07:30:00;98450.0;;;11.3;78.5
69198;BME280;56311;50.298;8.514;2023-05-19T07:32:00;98450.0;;;11.4;79.3
69198;BME280;56311;50.298;8.514;2023-05-19T07:34:00;98450.0;;;11.4;80.6
69198;BME280;56311;50.298;8.514;2023-05-19T07:36:00;98450.0;;;11.6;77.1
69198;BME280;56311;50.298;8.514;2023-05-19T07:38:00;98450.0;;;11.6;76.4
69198;BME280;56311;50.298;8.514;2023-05-19T07:40:00;98450.0;;;11.8;75.1
69198;BME280;56311;50.298;8.514;2023-05-19T07:42:00;98440.0;;;12.1;74.7
69198;BME280;56311;50.298;8.514;2023-05-19T07:44:00;98440.0;;;12.3;71.6
69198;BME280;56311;50.298;8.514;2023-05-19T07:46:00;98440.0;;;12.4;72.1
69198;BME280;56311;50.298;8.514;2023-05-19T07:48:00;98440.0;;;12.7;71.8
69198;BME280;56311;50.298;8.514;2023-05-19T07:50:00;98430.0;;;12.8;69.1
69198;BME280;56311;50.298;8.514;2023-05-19T07:52:00;98430.0;;;12.6;68.7
69198;BME280;56311;50.298;8.514;2023-05-19T07:54:00;98430.0;;;12.8;71.1
69198;BME280;56311;50.298;8.514;2023-05-19T07:56:00;98430.0;;;12.7;70.0
69198;BME280;56311;50.298;8.514;2023-05-19T07:58:00;98430.0;;;12.6;69.5
69198;BME280;56311;50.298;8.514;2023-05-19T08:00:00;98430.0;;;12.9;68.1
69198;BME280;56311;50.298;8.514;2023-05-19T08:02:00;98430.0;;;13.2;68.1
69198;BME280;56311;50.298;8.514;2023-05-19T08:04:00;98430.0;;;13.0;67.4
69198;BME280;56311;50.298;8.514;2023-05-19T08:06:00;98430.0;;;13.0;69.4
69198;BME280;56311;50.298;8.514;2023-05-19T08:08:00;98430.0;;;13.2;68.7
69198;BME280;56311;50.298;8.514;2023-05-19T08:10:00;98430.0;;;13.1;68.0
69198;BME280;56311;50.298;8.514;2023-05-19T08:12:00;98430.0;;;12.9;68.4
69198;BME280;56311;50.298;8.514;2023-05-19T08:14:00;98430.0;;;13.0;68.9
69198;BME280;56311;50.298;8.514;2023-05-19T08:16:00;98430.0;;;13.0;69.4
69198;BME280;56311;50.298;8.514;2023-05-19T08:18:00;98430.0;;;13.3;69.8
69198;BME280;56311;50.298;8.514;2023-05-19T08:20:00;98430.0;;;13.5;68.2
69198;BME280;56311;50.298;8.514;2023-05-19T08:22:00;98430.0;;;13.6;69.2
69198;BME280;56311;50.298;8.514;2023-05-19T08:24:00;98420.0;;;13.8;65.8
69198;BME280;56311;50.298;8.514;2023-05-19T08:26:00;98420.0;;;13.9;64.1
69198;BME280;56311;50.298;8.514;2023-05-19T08:28:00;98420.0;;;14.2;65.8
69198;BME280;56311;50.298;8.514;2023-05-19T08:30:00;98420.0;;;14.3;63.7
69198;BME280;56311;50.298;8.514;2023-05-19T08:32:00;98420.0;;;14.4;63.2
69198;BME280;56311;50.298;8.514;2023-05-19T08:34:00;98420.0;;;14.6;62.2
69198;BME280;56311;50.298;8.514;2023-05-19T08:36:00;98410.0;;;14.5;60.4
69198;BME280;56311;50.298;8.514;2023-05-19T08:38:00;98410.0;;;14.5;60.5
69198;BME280;56311;50.298;8.514;2023-05-19T08:40:00;98410.0;;;14.6;60.8
69198;BME280;56311;50.298;8.514;2023-05-19T08:42:00;98410.0;;;14.4;62.2
69198;BME280;56311;50.298;8.514;2023-05-19T08:44:00;98410.0;;;14.5;62.4
69198;BME280;56311;50.298;8.514;2023-05-19T08:46:02;98410.0;;;14.4;62.0
69198;BME280;56311;50.298;8.514;2023-05-19T08:48:00;98410.0;;;14.6;61.7
69198;BME280;56311;50.298;8.514;2023-05-19T08:50:05;98410.0;;;14.8;60.8
69198;BME280;56311;50.298;8.514;2023-05-19T08:52:08;98400.0;;;14.9;59.4
69198;BME280;56311;50.298;8.514;2023-05-19T08:54:08;98410.0;;;15.1;60.3
69198;BME280;56311;50.298;8.514;2023-05-19T08:56:03;98400.0;;;15.3;59.4
69198;BME280;56311;50.298;8.514;2023-05-19T08:58:02;98400.0;;;15.1;57.6
69198;BME280;56311;50.298;8.514;2023-05-19T09:00:01;98400.0;;;15.1;57.9
69198;BME280;56311;50.298;8.514;2023-05-19T09:02:01;98390.0;;;15.3;57.1
69198;BME280;56311;50.298;8.514;2023-05-19T09:04:00;98390.0;;;15.6;60.3
69198;BME280;56311;50.298;8.514;2023-05-19T09:06:00;98390.0;;;15.9;56.9
69198;BME280;56311;50.298;8.514;2023-05-19T09:08:02;98390.0;;;16.1;55.5
69198;BME280;56311;50.298;8.514;2023-05-19T09:10:00;98390.0;;;16.2;57.2
69198;BME280;56311;50.298;8.514;2023-05-19T09:12:00;98390.0;;;16.3;53.1
69198;BME280;56311;50.298;8.514;2023-05-19T09:14:00;98380.0;;;16.3;52.2
69198;BME280;56311;50.298;8.514;2023-05-19T09:16:01;98380.0;;;16.0;52.5
69198;BME280;56311;50.298;8.514;2023-05-19T09:18:08;98380.0;;;15.8;54.0
69198;BME280;56311;50.298;8.514;2023-05-19T09:20:00;98370.0;;;16.0;53.2
69198;BME280;56311;50.298;8.514;2023-05-19T09:22:01;98380.0;;;16.1;53.2
69198;BME280;56311;50.298;8.514;2023-05-19T09:24:03;98370.0;;;16.0;51.6
69198;BME280;56311;50.298;8.514;2023-05-19T09:26:01;98370.0;;;16.2;50.0
69198;BME280;56311;50.298;8.514;2023-05-19T09:28:00;98370.0;;;16.5;50.4
69198;BME280;56311;50.298;8.514;2023-05-19T09:30:06;98370.0;;;16.4;49.7
69198;BME280;56311;50.298;8.514;2023-05-19T09:32:00;98370.0;;;16.6;50.3
69198;BME280;56311;50.298;8.514;2023-05-19T09:34:00;98370.0;;;16.5;49.5
69198;BME280;56311;50.298;8.514;2023-05-19T09:36:01;98370.0;;;16.2;47.9
69198;BME280;56311;50.298;8.514;2023-05-19T09:38:00;98360.0;;;16.2;47.4
69198;BME280;56311;50.298;8.514;2023-05-19T09:40:00;98360.0;;;16.6;48.4
69198;BME280;56311;50.298;8.514;2023-05-19T09:42:03;98350.0;;;16.8;47.6
69198;BME280;56311;50.298;8.514;2023-05-19T09:44:00;98360.0;;;17.0;47.7
69198;BME280;56311;50.298;8.514;2023-05-19T09:46:02;98350.0;;;17.3;46.9
69198;BME280;56311;50.298;8.514;2023-05-19T09:48:02;98350.0;;;17.4;46.2
69198;BME280;56311;50.298;8.514;2023-05-19T09:50:00;98350.0;;;17.7;45.6
69198;BME280;56311;50.298;8.514;2023-05-19T09:52:02;98350.0;;;17.2;43.3
69198;BME280;56311;50.298;8.514;2023-05-19T09:54:00;98350.0;;;17.5;45.5
69198;BME280;56311;50.298;8.514;2023-05-19T09:56:01;98350.0;;;17.7;45.6
69198;BME280;56311;50.298;8.514;2023-05-19T09:58:00;98340.0;;;17.9;45.6
69198;BME280;56311;50.298;8.514;2023-05-19T10:00:01;98340.0;;;17.8;43.2
69198;BME280;56311;50.298;8.514;2023-05-19T10:02:00;98330.0;;;17.7;44.0
69198;BME280;56311;50.298;8.514;2023-05-19T10:04:01;98340.0;;;18.1;45.8
69198;BME280;56311;50.298;8.514;2023-05-19T10:06:00;98340.0;;;17.7;45.9
69198;BME280;56311;50.298;8.514;2023-05-19T10:08:00;98340.0;;;17.7;45.6
69198;BME280;56311;50.298;8.514;2023-05-19T10:10:00;98330.0;;;17.9;45.0
69198;BME280;56311;50.298;8.514;2023-05-19T10:12:01;98330.0;;;17.9;45.1
69198;BME280;56311;50.298;8.514;2023-05-19T10:14:00;98330.0;;;17.9;44.7
69198;BME280;56311;50.298;8.514;2023-05-19T10:16:00;98330.0;;;17.9;45.7
69198;BME280;56311;50.298;8.514;2023-05-19T10:18:01;98330.0;;;17.1;46.3
69198;BME280;56311;50.298;8.514;2023-05-19T10:20:01;98330.0;;;17.1;47.4
69198;BME280;56311;50.298;8.514;2023-05-19T10:22:00;98330.0;;;17.5;47.5
69198;BME280;56311;50.298;8.514;2023-05-19T10:24:00;98330.0;;;18.2;46.9
69198;BME280;56311;50.298;8.514;2023-05-19T10:26:02;98330.0;;;18.0;44.5
69198;BME280;56311;50.298;8.514;2023-05-19T10:28:02;98320.0;;;18.0;45.3
69198;BME280;56311;50.298;8.514;2023-05-19T10:30:06;98320.0;;;17.9;45.1
69198;BME280;56311;50.298;8.514;2023-05-19T10:32:05;98320.0;;;18.0;47.8
69198;BME280;56311;50.298;8.514;2023-05-19T10:34:13;98320.0;;;17.9;47.0
69198;BME280;56311;50.298;8.514;2023-05-19T10:36:12;98320.0;;;17.6;45.7
69198;BME280;56311;50.298;8.514;2023-05-19T10:38:09;98310.0;;;17.4;45.8
69198;BME280;56311;50.298;8.514;2023-05-19T10:40:04;98320.0;;;17.6;47.8
69198;BME280;56311;50.298;8.514;2023-05-19T10:42:04;98310.0;;;18.0;45.8
69198;BME280;56311;50.298;8.514;2023-05-19T10:44:07;98320.0;;;18.4;48.5
69198;BME280;56311;50.298;8.514;2023-05-19T10:46:00;98310.0;;;18.8;45.9
69198;BME280;56311;50.298;8.514;2023-05-19T10:48:00;98310.0;;;19.0;43.3
69198;BME280;56311;50.298;8.514;2023-05-19T10:50:00;98310.0;;;18.9;44.9
69198;BME280;56311;50.298;8.514;2023-05-19T10:52:00;98300.0;;;19.2;45.4
69198;BME280;56311;50.298;8.514;2023-05-19T10:54:00;98300.0;;;19.6;44.0
69198;BME280;56311;50.298;8.514;2023-05-19T10:56:01;98300.0;;;19.8;47.3
69198;BME280;56311;50.298;8.514;2023-05-19T10:58:00;98300.0;;;20.1;43.3
69198;BME280;56311;50.298;8.514;2023-05-19T11:00:03;98310.0;;;20.2;41.1
69198;BME280;56311;50.298;8.514;2023-05-19T11:02:02;98300.0;;;20.0;42.1
69198;BME280;56311;50.298;8.514;2023-05-19T11:04:05;98300.0;;;19.5;41.3